createdAt,value
2018-04-20T00:00:05.391Z,91.50
2018-04-20T00:02:33.630Z,91.60
2018-04-20T00:05:01.097Z,91.60
2018-04-20T00:07:28.554Z,91.80
2018-04-20T00:09:56.955Z,91.90
2018-04-20T00:12:24.420Z,91.70
2018-04-20T00:14:52.100Z,91.70
2018-04-20T00:17:19.551Z,91.40
2018-04-20T00:19:47.091Z,91.30
2018-04-20T00:22:14.546Z,91.50
2018-04-20T00:24:42.001Z,91.50
2018-04-20T00:27:09.455Z,91.80
2018-04-20T00:29:36.934Z,91.40
2018-04-20T00:32:04.400Z,91.30
2018-04-20T00:34:31.854Z,91.30
2018-04-20T00:36:59.378Z,91.40
2018-04-20T00:39:26.862Z,91.20
2018-04-20T00:41:54.298Z,91.10
2018-04-20T00:44:22.510Z,91.30
2018-04-20T00:46:49.954Z,91.20
2018-04-20T00:49:17.403Z,91.60
2018-04-20T00:51:44.850Z,91.70
2018-04-20T00:54:23.964Z,91.90
2018-04-20T00:56:51.425Z,91.90
2018-04-20T00:59:19.630Z,91.50
2018-04-20T01:01:47.066Z,91.50
2018-04-20T01:04:14.517Z,91.40
2018-04-20T01:06:42.784Z,91.50
2018-04-20T01:09:10.230Z,91.50
2018-04-20T01:11:37.678Z,91.80
2018-04-20T01:14:05.162Z,91.90
2018-04-20T01:16:32.618Z,92.30
2018-04-20T01:19:00.068Z,92.50
2018-04-20T01:21:27.546Z,93.20
2018-04-20T01:23:54.997Z,92.50
2018-04-20T01:26:22.652Z,93.00
2018-04-20T01:28:50.111Z,93.00
2018-04-20T01:31:17.559Z,92.90
2018-04-20T01:33:45.067Z,93.20
2018-04-20T01:36:12.695Z,93.40
2018-04-20T01:38:40.131Z,92.90
2018-04-20T01:41:08.342Z,93.10
2018-04-20T01:43:35.782Z,93.10
2018-04-20T01:46:03.290Z,93.70
2018-04-20T01:48:30.747Z,93.00
2018-04-20T01:50:58.208Z,93.30
2018-04-20T01:53:25.660Z,93.40
2018-04-20T01:55:53.683Z,93.70
2018-04-20T01:58:21.132Z,93.50
2018-04-20T02:00:48.602Z,93.80
2018-04-20T02:03:16.031Z,93.90
2018-04-20T02:05:43.591Z,93.70
2018-04-20T02:08:11.027Z,93.90
2018-04-20T02:10:38.510Z,93.60
2018-04-20T02:13:05.973Z,94.10
2018-04-20T02:15:33.421Z,93.90
2018-04-20T02:18:00.890Z,94.00
2018-04-20T02:20:29.241Z,94.20
2018-04-20T02:22:56.704Z,94.20
2018-04-20T02:25:24.198Z,94.30
2018-04-20T02:27:51.637Z,94.40
2018-04-20T02:30:19.128Z,94.40
2018-04-20T02:32:46.583Z,94.60
2018-04-20T02:35:14.050Z,94.50
2018-04-20T02:37:41.514Z,94.80
2018-04-20T02:40:08.978Z,95.20
2018-04-20T02:42:36.443Z,94.90
2018-04-20T02:45:03.883Z,95.00
2018-04-20T02:47:31.322Z,95.00
2018-04-20T02:49:58.820Z,95.00
2018-04-20T02:52:26.262Z,95.00
2018-04-20T02:54:53.738Z,94.70
2018-04-20T02:57:21.193Z,94.50
2018-04-20T02:59:49.303Z,94.60
2018-04-20T03:02:16.847Z,94.90
2018-04-20T03:04:44.294Z,94.90
2018-04-20T03:07:11.737Z,94.80
2018-04-20T03:09:39.190Z,94.80
2018-04-20T03:12:06.614Z,95.20
2018-04-20T03:14:34.081Z,94.90
2018-04-20T03:17:01.607Z,95.00
2018-04-20T03:19:29.061Z,94.90
2018-04-20T03:21:56.608Z,94.80
2018-04-20T03:24:24.103Z,95.20
2018-04-20T03:26:51.559Z,95.80
2018-04-20T03:29:18.995Z,95.30
2018-04-20T03:31:46.435Z,95.50
2018-04-20T03:34:13.873Z,95.60
2018-04-20T03:36:41.314Z,95.60
2018-04-20T03:39:08.773Z,95.40
2018-04-20T03:41:36.227Z,95.40
2018-04-20T03:44:03.685Z,95.70
2018-04-20T03:46:31.135Z,95.50
2018-04-20T03:48:58.582Z,96.20
2018-04-20T03:51:26.046Z,96.00
2018-04-20T03:53:53.486Z,96.50
2018-04-20T03:56:20.998Z,96.60
2018-04-20T03:58:49.179Z,96.50
2018-04-20T04:01:16.640Z,96.50
2018-04-20T04:03:44.098Z,96.90
2018-04-20T04:06:11.551Z,97.20
2018-04-20T04:08:38.990Z,96.90
2018-04-20T04:11:06.430Z,96.90
2018-04-20T04:13:34.638Z,97.20
2018-04-20T04:16:02.098Z,97.20
2018-04-20T04:18:41.566Z,96.90
2018-04-20T04:21:20.990Z,97.10
2018-04-20T04:24:00.442Z,96.90
2018-04-20T04:29:31.534Z,97.50
2018-04-20T04:31:58.977Z,97.40
2018-04-20T04:34:27.183Z,97.60
2018-04-20T04:36:54.626Z,97.60
2018-04-20T04:39:22.059Z,97.50
2018-04-20T04:41:49.593Z,98.10
2018-04-20T04:44:17.043Z,98.30
2018-04-20T04:46:44.503Z,98.10
2018-04-20T04:49:12.739Z,98.10
2018-04-20T04:51:40.966Z,98.00
2018-04-20T04:54:08.407Z,98.00
2018-04-20T04:56:35.894Z,98.20
2018-04-20T04:59:03.365Z,98.00
2018-04-20T05:01:30.836Z,98.20
2018-04-20T05:03:58.388Z,98.10
2018-04-20T05:06:25.845Z,98.60
2018-04-20T05:08:53.280Z,98.10
2018-04-20T05:11:20.723Z,98.20
2018-04-20T05:13:48.170Z,98.10
2018-04-20T05:16:16.455Z,98.70
2018-04-20T05:18:44.671Z,98.70
2018-04-20T05:21:12.106Z,98.60
2018-04-20T05:23:39.578Z,99.30
2018-04-20T05:26:07.007Z,99.40
2018-04-20T05:28:35.255Z,99.90
2018-04-20T05:31:02.720Z,99.90
2018-04-20T05:33:30.271Z,99.90
2018-04-20T05:35:57.727Z,99.70
2018-04-20T05:38:25.199Z,99.90
2018-04-20T05:40:52.662Z,99.90
2018-04-20T05:43:20.119Z,99.90
2018-04-20T05:45:47.596Z,99.90
2018-04-20T05:48:15.057Z,99.90
2018-04-20T05:50:42.500Z,99.90
2018-04-20T05:53:09.940Z,99.90
2018-04-20T05:55:37.405Z,99.90
2018-04-20T05:58:04.845Z,99.90
2018-04-20T06:00:32.306Z,99.90
2018-04-20T06:03:00.506Z,99.90
2018-04-20T06:05:27.958Z,99.90
2018-04-20T06:07:55.403Z,99.90
2018-04-20T06:10:23.632Z,99.30
2018-04-20T06:12:51.063Z,99.30
2018-04-20T06:15:18.521Z,98.60
2018-04-20T06:17:46.765Z,98.80
2018-04-20T06:20:14.162Z,99.00
2018-04-20T06:22:41.609Z,98.40
2018-04-20T06:25:10.758Z,98.00
2018-04-20T06:27:38.204Z,98.00
2018-04-20T06:30:05.687Z,98.30
2018-04-20T06:32:33.169Z,98.00
2018-04-20T06:35:00.618Z,98.10
2018-04-20T06:37:28.050Z,98.90
2018-04-20T06:39:55.594Z,97.80
2018-04-20T06:42:23.013Z,98.30
2018-04-20T06:44:50.543Z,97.80
2018-04-20T06:47:18.015Z,98.40
2018-04-20T06:49:45.470Z,96.20
2018-04-20T06:52:12.928Z,96.60
2018-04-20T06:54:40.382Z,95.20
2018-04-20T06:57:07.859Z,93.30
2018-04-20T06:59:35.307Z,95.90
2018-04-20T07:02:02.755Z,97.20
2018-04-20T07:04:30.243Z,97.10
2018-04-20T07:06:57.690Z,95.20
2018-04-20T07:09:25.124Z,95.80
2018-04-20T07:11:52.576Z,95.70
2018-04-20T07:14:20.074Z,96.10
2018-04-20T07:16:47.553Z,94.40
2018-04-20T07:19:15.035Z,94.30
2018-04-20T07:21:42.503Z,94.90
2018-04-20T07:24:10.709Z,94.60
2018-04-20T07:26:38.159Z,94.60
2018-04-20T07:29:06.398Z,95.50
2018-04-20T07:31:33.855Z,95.50
2018-04-20T07:34:01.416Z,93.70
2018-04-20T07:36:28.892Z,93.60
2018-04-20T07:38:56.331Z,92.40
2018-04-20T07:41:23.787Z,90.50
2018-04-20T07:43:51.230Z,90.50
2018-04-20T07:46:18.683Z,90.80
2018-04-20T07:48:46.191Z,83.70
2018-04-20T07:51:13.718Z,82.70
2018-04-20T07:53:41.174Z,83.50
2018-04-20T07:56:08.609Z,85.80
2018-04-20T07:58:36.820Z,78.10
2018-04-20T08:01:04.298Z,78.00
2018-04-20T08:03:31.774Z,79.10
2018-04-20T08:05:59.214Z,74.60
2018-04-20T08:08:26.687Z,71.80
2018-04-20T08:10:54.146Z,70.70
2018-04-20T08:13:21.592Z,69.20
2018-04-20T08:15:49.025Z,67.60
2018-04-20T08:18:16.483Z,61.00
2018-04-20T08:20:44.683Z,60.40
2018-04-20T08:23:12.170Z,60.30
2018-04-20T08:25:39.635Z,58.10
2018-04-20T08:28:07.099Z,55.90
2018-04-20T08:30:34.537Z,56.10
2018-04-20T08:33:02.017Z,54.50
2018-04-20T08:35:29.481Z,54.50
2018-04-20T08:37:56.943Z,55.00
2018-04-20T08:40:24.425Z,54.40
2018-04-20T08:42:51.842Z,55.40
2018-04-20T08:45:19.299Z,57.10
2018-04-20T08:47:46.786Z,57.80
2018-04-20T08:50:14.234Z,58.00
2018-04-20T08:52:41.702Z,59.50
2018-04-20T08:55:09.145Z,61.20
2018-04-20T08:57:36.634Z,62.80
2018-04-20T09:00:04.079Z,62.70
2018-04-20T09:02:31.544Z,61.70
2018-04-20T09:04:58.982Z,62.90
2018-04-20T09:07:26.421Z,64.90
2018-04-20T09:09:54.634Z,63.50
2018-04-20T09:12:22.095Z,63.50
2018-04-20T09:14:49.545Z,64.20
2018-04-20T09:17:16.974Z,64.50
2018-04-20T09:19:44.514Z,65.00
2018-04-20T09:22:12.002Z,65.90
2018-04-20T09:24:39.463Z,65.00
2018-04-20T09:27:06.991Z,66.40
2018-04-20T09:29:34.443Z,65.80
2018-04-20T09:32:01.901Z,66.80
2018-04-20T09:34:29.448Z,67.50
2018-04-20T09:36:56.879Z,67.30
2018-04-20T09:39:25.121Z,68.80
2018-04-20T09:41:52.583Z,68.60
2018-04-20T09:44:20.071Z,69.60
2018-04-20T09:46:47.514Z,69.70
2018-04-20T09:49:15.064Z,70.10
2018-04-20T09:51:42.513Z,70.10
2018-04-20T09:54:09.958Z,69.50
2018-04-20T09:56:37.411Z,70.00
2018-04-20T09:59:04.847Z,70.20
2018-04-20T10:01:34.013Z,70.30
2018-04-20T10:04:01.455Z,70.30
2018-04-20T10:06:28.929Z,70.40
2018-04-20T10:08:56.371Z,70.60
2018-04-20T10:11:23.830Z,70.60
2018-04-20T10:13:51.271Z,70.90
2018-04-20T10:16:18.724Z,70.90
2018-04-20T10:18:46.930Z,71.50
2018-04-20T10:21:14.403Z,71.40
2018-04-20T10:23:41.877Z,70.90
2018-04-20T10:26:09.387Z,68.40
2018-04-20T10:28:37.594Z,69.60
2018-04-20T10:31:05.045Z,69.60
2018-04-20T10:33:32.567Z,70.30
2018-04-20T10:35:59.963Z,72.50
2018-04-20T10:38:27.402Z,68.60
2018-04-20T10:40:55.645Z,71.60
2018-04-20T10:43:23.122Z,71.50
2018-04-20T10:45:50.578Z,70.40
2018-04-20T10:48:18.035Z,70.10
2018-04-20T10:50:45.491Z,70.50
2018-04-20T10:53:12.947Z,70.60
2018-04-20T10:55:40.391Z,70.90
2018-04-20T10:58:07.846Z,70.90
2018-04-20T11:00:35.280Z,69.40
2018-04-20T11:03:03.502Z,69.30
2018-04-20T11:05:30.950Z,69.30
2018-04-20T11:07:58.395Z,69.60
2018-04-20T11:10:25.832Z,69.70
2018-04-20T11:12:54.051Z,69.40
2018-04-20T11:15:21.497Z,69.30
2018-04-20T11:17:48.974Z,70.10
2018-04-20T11:20:16.438Z,70.00
2018-04-20T11:22:43.885Z,70.50
2018-04-20T11:25:11.355Z,70.40
2018-04-20T11:27:38.847Z,70.60
2018-04-20T11:30:06.307Z,68.00
2018-04-20T11:32:33.811Z,68.40
2018-04-20T11:35:02.024Z,67.40
2018-04-20T11:37:29.511Z,67.20
2018-04-20T11:39:56.984Z,61.60
2018-04-20T11:42:24.417Z,65.90
2018-04-20T11:44:51.890Z,65.50
2018-04-20T11:47:19.486Z,65.40
2018-04-20T11:49:46.992Z,67.10
2018-04-20T11:52:14.421Z,66.20
2018-04-20T11:54:42.630Z,64.00
2018-04-20T11:57:10.062Z,63.80
2018-04-20T11:59:38.278Z,65.90
2018-04-20T12:02:05.714Z,65.90
2018-04-20T12:04:33.934Z,66.20
2018-04-20T12:07:01.374Z,66.10
2018-04-20T12:09:28.862Z,67.00
2018-04-20T12:11:56.335Z,67.00
2018-04-20T12:14:23.783Z,62.60
2018-04-20T12:16:51.222Z,62.30
2018-04-20T12:19:18.706Z,64.40
2018-04-20T12:21:46.167Z,67.20
2018-04-20T12:24:13.599Z,63.70
2018-04-20T12:26:41.102Z,65.00
2018-04-20T12:29:08.547Z,64.80
2018-04-20T12:31:36.030Z,64.60
2018-04-20T12:34:03.591Z,65.10
2018-04-20T12:36:31.051Z,65.10
2018-04-20T12:38:58.547Z,64.60
2018-04-20T12:41:25.966Z,63.80
2018-04-20T12:43:53.416Z,64.50
2018-04-20T12:46:20.968Z,61.40
2018-04-20T12:48:48.456Z,62.30
2018-04-20T12:51:15.977Z,62.80
2018-04-20T12:53:43.367Z,60.20
2018-04-20T12:56:10.829Z,62.50
2018-04-20T12:58:38.253Z,62.60
2018-04-20T13:01:06.459Z,63.00
2018-04-20T13:03:33.910Z,63.00
2018-04-20T13:06:01.405Z,62.90
2018-04-20T13:08:28.846Z,61.60
2018-04-20T13:10:56.330Z,62.90
2018-04-20T13:13:24.207Z,62.30
2018-04-20T13:15:51.652Z,63.40
2018-04-20T13:18:19.152Z,63.70
2018-04-20T13:20:46.539Z,64.00
2018-04-20T13:23:13.995Z,64.00
2018-04-20T13:25:42.302Z,63.40
2018-04-20T13:28:09.687Z,63.40
2018-04-20T13:30:37.131Z,64.00
2018-04-20T13:33:04.614Z,63.60
2018-04-20T13:35:32.046Z,64.80
2018-04-20T13:37:59.490Z,66.00
2018-04-20T13:40:27.437Z,63.10
2018-04-20T13:42:54.843Z,64.60
2018-04-20T13:45:22.291Z,64.90
2018-04-20T13:47:49.774Z,65.10
2018-04-20T13:50:17.280Z,65.70
2018-04-20T13:52:45.535Z,63.70
2018-04-20T13:55:12.970Z,63.30
2018-04-20T13:57:40.443Z,63.20
2018-04-20T14:00:07.981Z,65.20
2018-04-20T14:02:35.453Z,65.80
2018-04-20T14:05:02.947Z,66.80
2018-04-20T14:07:30.392Z,66.00
2018-04-20T14:09:57.859Z,65.50
2018-04-20T14:12:25.298Z,65.70
2018-04-20T14:14:52.748Z,66.50
2018-04-20T14:17:20.331Z,66.30
2018-04-20T14:19:47.834Z,66.70
2018-04-20T14:22:15.397Z,67.30
2018-04-20T14:24:42.875Z,67.70
2018-04-20T14:27:10.326Z,67.80
2018-04-20T14:29:37.805Z,67.90
2018-04-20T14:32:06.004Z,68.40
2018-04-20T14:34:33.444Z,68.40
2018-04-20T14:37:01.663Z,68.70
2018-04-20T14:39:29.115Z,68.60
2018-04-20T14:41:56.667Z,69.80
2018-04-20T14:44:24.131Z,68.60
2018-04-20T14:46:51.614Z,67.60
2018-04-20T14:49:19.063Z,68.20
2018-04-20T14:51:46.490Z,68.80
2018-04-20T14:54:14.720Z,67.90
2018-04-20T14:56:42.162Z,67.90
2018-04-20T14:59:09.591Z,68.50
2018-04-20T15:01:37.842Z,67.30
2018-04-20T15:04:05.286Z,67.30
2018-04-20T15:06:32.752Z,69.00
2018-04-20T15:09:00.198Z,69.20
2018-04-20T15:11:27.678Z,69.20
2018-04-20T15:13:55.146Z,68.60
2018-04-20T15:16:22.716Z,68.00
2018-04-20T15:18:51.014Z,69.60
2018-04-20T15:21:18.592Z,69.60
2018-04-20T15:23:46.809Z,70.10
2018-04-20T15:26:14.305Z,70.10
2018-04-20T15:28:41.877Z,70.00
2018-04-20T15:31:10.196Z,70.80
2018-04-20T15:33:37.617Z,70.80
2018-04-20T15:36:05.891Z,72.60
2018-04-20T15:38:33.321Z,71.70
2018-04-20T15:41:00.914Z,69.50
2018-04-20T15:43:28.371Z,69.40
2018-04-20T15:45:55.813Z,69.60
2018-04-20T15:48:23.277Z,70.10
2018-04-20T15:50:50.823Z,70.40
2018-04-20T15:53:18.543Z,70.30
2018-04-20T15:55:46.078Z,70.70
2018-04-20T15:58:13.521Z,70.00
2018-04-20T16:00:41.000Z,69.60
2018-04-20T16:03:08.451Z,70.30
2018-04-20T16:05:36.735Z,71.30
2018-04-20T16:08:04.226Z,70.50
2018-04-20T16:10:31.654Z,70.70
2018-04-20T16:12:59.117Z,70.40
2018-04-20T16:15:26.575Z,70.00
2018-04-20T16:17:54.043Z,70.00
2018-04-20T16:20:21.489Z,69.90
2018-04-20T16:22:49.004Z,69.90
2018-04-20T16:25:16.455Z,69.40
2018-04-20T16:27:44.063Z,69.90
2018-04-20T16:30:12.221Z,70.70
2018-04-20T16:32:39.726Z,70.60
2018-04-20T16:35:07.265Z,70.30
2018-04-20T16:37:34.763Z,70.20
2018-04-20T16:40:02.216Z,70.40
2018-04-20T16:42:29.667Z,70.30
2018-04-20T16:44:57.125Z,70.40
2018-04-20T16:47:24.594Z,70.40
2018-04-20T16:49:52.071Z,70.60
2018-04-20T16:52:19.509Z,70.70
2018-04-20T16:54:46.978Z,71.60
2018-04-20T16:57:14.450Z,70.90
2018-04-20T16:59:41.983Z,70.90
2018-04-20T17:02:09.414Z,70.50
2018-04-20T17:04:37.655Z,70.90
2018-04-20T17:07:05.091Z,70.80
2018-04-20T17:09:32.647Z,70.90
2018-04-20T17:12:00.076Z,70.70
2018-04-20T17:14:28.318Z,71.00
2018-04-20T17:16:55.773Z,71.00
2018-04-20T17:19:23.243Z,71.40
2018-04-20T17:21:50.716Z,70.90
2018-04-20T17:24:18.264Z,72.00
2018-04-20T17:26:45.798Z,71.80
2018-04-20T17:29:13.246Z,71.80
2018-04-20T17:31:41.498Z,72.20
2018-04-20T17:34:08.942Z,72.20
2018-04-20T17:36:36.494Z,72.50
2018-04-20T17:39:03.955Z,72.50
2018-04-20T17:41:31.407Z,72.70
2018-04-20T17:43:58.842Z,72.70
2018-04-20T17:46:26.340Z,73.20
2018-04-20T17:48:53.976Z,73.40
2018-04-20T17:51:21.458Z,73.30
2018-04-20T17:53:48.925Z,73.50
2018-04-20T17:56:16.401Z,74.10
2018-04-20T17:58:43.834Z,74.30
2018-04-20T18:01:11.310Z,74.10
2018-04-20T18:03:38.751Z,73.90
2018-04-20T18:06:06.210Z,74.40
2018-04-20T18:08:33.647Z,74.00
2018-04-20T18:11:01.231Z,74.60
2018-04-20T18:13:28.722Z,75.10
2018-04-20T18:15:56.256Z,75.30
2018-04-20T18:18:23.726Z,75.50
2018-04-20T18:20:51.154Z,76.30
2018-04-20T18:23:19.774Z,76.60
2018-04-20T18:25:47.264Z,76.60
2018-04-20T18:28:14.747Z,78.70
2018-04-20T18:30:42.243Z,77.10
2018-04-20T18:33:09.639Z,77.20
2018-04-20T18:35:37.123Z,77.30
2018-04-20T18:38:04.618Z,77.20
2018-04-20T18:40:32.850Z,77.50
2018-04-20T18:43:00.293Z,77.50
2018-04-20T18:45:27.731Z,77.70
2018-04-20T18:47:55.191Z,78.00
2018-04-20T18:50:22.733Z,78.20
2018-04-20T18:52:50.862Z,78.00
2018-04-20T18:55:18.328Z,78.00
2018-04-20T18:57:45.779Z,78.80
2018-04-20T19:00:13.227Z,79.20
2018-04-20T19:02:40.674Z,80.80
2018-04-20T19:05:08.148Z,81.40
2018-04-20T19:07:35.587Z,81.20
2018-04-20T19:10:03.787Z,81.00
2018-04-20T19:12:32.010Z,80.30
2018-04-20T19:14:59.454Z,80.40
2018-04-20T19:17:26.902Z,82.40
2018-04-20T19:19:54.344Z,82.40
2018-04-20T19:22:21.817Z,83.10
2018-04-20T19:24:49.257Z,83.30
2018-04-20T19:27:17.481Z,84.20
2018-04-20T19:29:45.054Z,84.20
2018-04-20T19:32:12.505Z,84.80
2018-04-20T19:34:39.975Z,85.60
2018-04-20T19:37:07.527Z,85.30
2018-04-20T19:39:35.596Z,84.70
2018-04-20T19:42:03.053Z,87.10
2018-04-20T19:44:30.509Z,85.50
2018-04-20T19:46:58.572Z,86.90
2018-04-20T19:49:26.066Z,86.00
2018-04-20T19:51:54.429Z,85.90
2018-04-20T19:54:22.627Z,86.60
2018-04-20T19:56:50.093Z,86.60
2018-04-20T19:59:17.568Z,86.50
2018-04-20T20:01:45.031Z,86.50
2018-04-20T20:04:12.473Z,87.80
2018-04-20T20:06:39.906Z,87.90
2018-04-20T20:09:07.353Z,88.00
2018-04-20T20:11:34.789Z,87.90
2018-04-20T20:14:03.010Z,88.60
2018-04-20T20:16:30.467Z,88.50
2018-04-20T20:18:58.050Z,89.00
2018-04-20T20:21:25.592Z,88.60
2018-04-20T20:23:53.091Z,89.70
2018-04-20T20:26:20.552Z,89.50
2018-04-20T20:28:48.078Z,89.60
2018-04-20T20:31:15.583Z,90.00
2018-04-20T20:33:43.034Z,89.60
2018-04-20T20:36:10.508Z,90.50
2018-04-20T20:38:37.959Z,90.40
2018-04-20T20:41:05.514Z,90.40
2018-04-20T20:43:32.963Z,90.90
2018-04-20T20:46:00.439Z,90.70
2018-04-20T20:48:27.883Z,90.60
2018-04-20T20:50:55.439Z,91.10
2018-04-20T20:53:22.887Z,90.70
2018-04-20T20:55:50.339Z,91.00
2018-04-20T20:58:18.560Z,90.70
2018-04-20T21:00:46.039Z,90.70
2018-04-20T21:03:13.483Z,91.00
2018-04-20T21:05:40.946Z,91.90
2018-04-20T21:08:08.406Z,91.90
2018-04-20T21:10:35.883Z,91.80
2018-04-20T21:13:03.334Z,92.00
2018-04-20T21:15:30.790Z,91.80
2018-04-20T21:17:58.266Z,91.70
2018-04-20T21:20:25.722Z,92.40
2018-04-20T21:22:53.162Z,91.90
2018-04-20T21:25:21.023Z,92.20
2018-04-20T21:27:48.470Z,92.30
2018-04-20T21:30:15.906Z,92.30
2018-04-20T21:32:44.123Z,92.60
2018-04-20T21:35:11.574Z,92.50
2018-04-20T21:37:39.018Z,92.70
2018-04-20T21:40:07.333Z,92.70
2018-04-20T21:42:34.792Z,92.70
2018-04-20T21:45:02.236Z,92.60
2018-04-20T21:47:29.741Z,93.00
2018-04-20T21:49:57.193Z,93.10
2018-04-20T21:52:24.651Z,92.80
2018-04-20T21:54:52.082Z,92.70
2018-04-20T21:57:19.535Z,93.20
2018-04-20T21:59:47.761Z,93.70
2018-04-20T22:02:15.217Z,93.70
2018-04-20T22:04:42.694Z,93.70
2018-04-20T22:07:10.141Z,93.90
2018-04-20T22:09:37.579Z,94.00
2018-04-20T22:12:05.025Z,94.10
2018-04-20T22:14:32.482Z,94.80
2018-04-20T22:17:00.711Z,94.80
2018-04-20T22:19:28.187Z,94.80
2018-04-20T22:21:55.729Z,95.10
2018-04-20T22:24:23.190Z,95.30
2018-04-20T22:26:50.630Z,95.40
2018-04-20T22:29:18.073Z,95.60
2018-04-20T22:31:45.582Z,95.20
2018-04-20T22:34:13.039Z,95.50
2018-04-20T22:36:40.487Z,96.00
2018-04-20T22:39:07.966Z,95.90
2018-04-20T22:41:35.402Z,96.20
2018-04-20T22:44:02.861Z,96.30
2018-04-20T22:46:30.303Z,96.70
2018-04-20T22:48:57.814Z,97.00
2018-04-20T22:51:25.267Z,97.10
2018-04-20T22:53:52.715Z,97.50
2018-04-20T22:56:20.196Z,97.50
2018-04-20T22:58:47.648Z,97.80
2018-04-20T23:01:15.122Z,97.90
2018-04-20T23:03:42.590Z,98.00
2018-04-20T23:06:10.031Z,98.00
2018-04-20T23:08:37.621Z,98.60
2018-04-20T23:11:05.065Z,98.50
2018-04-20T23:13:32.506Z,98.80
2018-04-20T23:15:59.986Z,98.90
2018-04-20T23:18:27.430Z,98.80
2018-04-20T23:20:54.920Z,99.00
2018-04-20T23:23:22.388Z,98.90
2018-04-20T23:25:49.951Z,99.40
2018-04-20T23:28:17.394Z,99.80
2018-04-20T23:30:44.847Z,99.50
2018-04-20T23:33:12.294Z,99.30
2018-04-20T23:35:39.755Z,99.50
2018-04-20T23:38:07.238Z,99.50
2018-04-20T23:40:34.689Z,99.90
2018-04-20T23:43:02.143Z,99.90
2018-04-20T23:45:29.599Z,99.90
2018-04-20T23:47:57.186Z,99.90
2018-04-20T23:50:24.642Z,99.90
2018-04-20T23:52:52.118Z,99.90
2018-04-20T23:55:19.583Z,99.90
2018-04-20T23:57:47.054Z,99.90
